^^
Your Local Weather - Clay, NY Station Historical Data
Daily Summary for January 8, 2018 Units:  English    Metric   Both
« Previous Day
Next Day »
Daily Weekly Monthly Yearly Custom
  High: Low: Average:
Temperature: 38.0 °F 25.4 °F 34.2 °F
Dew Point: 31.5 °F 14.9 °F 27 °F
Humidity: 87% 52% 75%
Wind Speed: 6.0mph 1.0mph 2.9mph
Wind Gust: 10.0mph - -
Wind- - SW
Pressure: 30.03 in 29.80 in -
Precipitation: 0.10 in    
Historical Graphs
 
 
Tabular Data for January 8, 2018
Time Temperature Dew Point Pressure Wind Wind Speed Wind Gust Humidity Rainfall Rate (Hourly) solar
04:18 30.4 °F 14.9 °F 30.02 in SSW 1.0 mph 2.0 mph 52% 0.00 in 0 W/m2
04:20 30.5 °F 14.9 °F 30.03 in SSW 1.0 mph 3.0 mph 52% 0.00 in 0 W/m2
04:38 31.2 °F 16.0 °F 30.01 in SW 2.0 mph 4.0 mph 53% 0.00 in 0 W/m2
04:40 31.3 °F 16.6 °F 30.02 in South 2.0 mph 4.0 mph 54% 0.00 in 0 W/m2
04:46 31.3 °F 17.0 °F 30.01 in South 3.0 mph 4.0 mph 55% 0.00 in 0 W/m2
04:54 31.1 °F 18.0 °F 30.02 in SSW 3.0 mph 3.0 mph 58% 0.00 in 0 W/m2
05:00 31.0 °F 18.7 °F 30.02 in South 3.0 mph 3.0 mph 60% 0.00 in 0 W/m2
05:06 31.0 °F 18.3 °F 30.02 in SSE 3.0 mph 4.0 mph 59% 0.00 in 0 W/m2
05:14 30.6 °F 18.0 °F 30.02 in SSE 3.0 mph 6.0 mph 59% 0.00 in 0 W/m2
05:24 29.7 °F 19.0 °F 30.02 in South 4.0 mph 4.0 mph 64% 0.00 in 0 W/m2
05:30 28.7 °F 19.5 °F 30.02 in South 4.0 mph 4.0 mph 68% 0.00 in 0 W/m2
05:38 27.1 °F 20.5 °F 30.02 in South 6.0 mph 8.0 mph 76% 0.00 in 0 W/m2
05:46 26.3 °F 21.3 °F 30.02 in SSE 5.0 mph 8.0 mph 81% 0.00 in 0 W/m2
06:03 25.7 °F 22.1 °F 30.02 in SE 4.0 mph 4.0 mph 86% 0.00 in 0 W/m2
06:08 25.6 °F 22.0 °F 30.02 in SSE 3.0 mph 4.0 mph 86% 0.00 in 0 W/m2
06:16 25.4 °F 22.1 °F 30.02 in South 3.0 mph 4.0 mph 87% 0.00 in 0 W/m2
06:58 25.9 °F 22.6 °F 29.98 in SSE 3.0 mph 4.0 mph 87% 0.00 in 0 W/m2
07:06 25.9 °F 22.3 °F 29.98 in East 2.0 mph 3.0 mph 86% 0.00 in 0 W/m2
07:22 25.6 °F 22.0 °F 29.97 in SE 2.0 mph 3.0 mph 86% 0.00 in 0 W/m2
07:28 25.4 °F 21.8 °F 29.96 in ESE 3.0 mph 4.0 mph 86% 0.00 in 0 W/m2
08:56 28.3 °F 18.7 °F 29.95 in SE 4.0 mph 6.0 mph 67% 0.00 in 0 W/m2
10:40 28.3 °F 22.9 °F 29.89 in SSE 3.0 mph 3.0 mph 80% 0.00 in 9 W/m2
11:03 28.5 °F 24.3 °F 29.88 in SSW 2.0 mph 4.0 mph 84% 0.00 in 11 W/m2
11:30 30.5 °F 26.2 °F 29.86 in SW 2.0 mph 4.0 mph 84% 0.00 in 25 W/m2
11:38 31.3 °F 26.1 °F 29.85 in South 3.0 mph 4.0 mph 81% 0.00 in 23 W/m2
11:44 32.2 °F 25.5 °F 29.84 in SSW 3.0 mph 5.0 mph 76% 0.00 in 25 W/m2
11:50 33.2 °F 24.8 °F 29.84 in SW 4.0 mph 4.0 mph 71% 0.00 in 28 W/m2
11:56 33.9 °F 24.4 °F 29.84 in South 5.0 mph 7.0 mph 68% 0.00 in 23 W/m2
12:06 34.4 °F 24.2 °F 29.83 in SSW 5.0 mph 10.0 mph 66% 0.00 in 21 W/m2
12:12 34.6 °F 24.0 °F 29.83 in SSW 5.0 mph 7.0 mph 65% 0.00 in 18 W/m2
12:20 34.7 °F 24.1 °F 29.83 in SW 5.0 mph 5.0 mph 65% 0.00 in 16 W/m2
12:26 34.8 °F 24.2 °F 29.83 in SSW 4.0 mph 6.0 mph 65% 0.00 in 14 W/m2
12:32 35.1 °F 24.1 °F 29.82 in SW 4.0 mph 4.0 mph 64% 0.00 in 14 W/m2
12:38 35.3 °F 24.3 °F 29.82 in WSW 5.0 mph 8.0 mph 64% 0.00 in 14 W/m2
12:46 35.3 °F 24.3 °F 29.81 in SSW 4.0 mph 8.0 mph 64% 0.00 in 12 W/m2
12:50 35.3 °F 24.7 °F 29.81 in SSW 5.0 mph 5.0 mph 65% 0.00 in 12 W/m2
12:56 35.4 °F 24.8 °F 29.81 in SW 5.0 mph 6.0 mph 65% 0.00 in 11 W/m2
13:02 35.4 °F 24.8 °F 29.81 in SSW 5.0 mph 5.0 mph 65% 0.00 in 11 W/m2
13:10 35.4 °F 25.2 °F 29.81 in SW 4.0 mph 4.0 mph 66% 0.00 in 9 W/m2
13:16 35.4 °F 25.2 °F 29.81 in SSW 4.0 mph 6.0 mph 66% 0.00 in 9 W/m2
13:22 35.4 °F 25.9 °F 29.81 in SSW 4.0 mph 4.0 mph 68% 0.00 in 9 W/m2
13:30 35.6 °F 26.1 °F 29.80 in SW 4.0 mph 4.0 mph 68% 0.00 in 12 W/m2
13:38 35.6 °F 26.4 °F 29.80 in South 3.0 mph 5.0 mph 69% 0.00 in 11 W/m2
13:44 35.8 °F 26.6 °F 29.80 in SSW 3.0 mph 4.0 mph 69% 0.00 in 9 W/m2
13:54 35.9 °F 27.1 °F 29.80 in SW 3.0 mph 9.0 mph 70% 0.00 in 14 W/m2
14:03 36.0 °F 27.2 °F 29.81 in SW 3.0 mph 6.0 mph 70% 0.00 in 11 W/m2
14:10 36.2 °F 27.4 °F 29.81 in SSW 3.0 mph 3.0 mph 70% 0.00 in 14 W/m2
14:16 36.2 °F 27.7 °F 29.81 in SSW 2.0 mph 4.0 mph 71% 0.00 in 14 W/m2
14:22 36.3 °F 27.8 °F 29.81 in SW 3.0 mph 7.0 mph 71% 0.00 in 21 W/m2
14:28 36.4 °F 27.9 °F 29.80 in South 3.0 mph 7.0 mph 71% 0.00 in 19 W/m2
14:34 36.6 °F 28.1 °F 29.80 in SSW 4.0 mph 4.0 mph 71% 0.00 in 23 W/m2
14:42 36.6 °F 28.1 °F 29.81 in SSW 3.0 mph 4.0 mph 71% 0.00 in 26 W/m2
14:48 36.6 °F 28.4 °F 29.81 in SSW 2.0 mph 4.0 mph 72% 0.00 in 25 W/m2
14:54 36.6 °F 28.4 °F 29.81 in SSW 2.0 mph 4.0 mph 72% 0.00 in 21 W/m2
15:00 36.5 °F 28.3 °F 29.81 in SSW 2.0 mph 3.0 mph 72% 0.00 in 23 W/m2
15:10 36.6 °F 28.4 °F 29.81 in South 3.0 mph 4.0 mph 72% 0.00 in 21 W/m2
16:46 38.0 °F 29.8 °F 29.83 in WSW 5.0 mph 9.0 mph 72% 0.00 in 0 W/m2
17:28 37.8 °F 29.9 °F 29.84 in SW 4.0 mph 5.0 mph 73% 0.00 in 0 W/m2
17:46 37.8 °F 29.9 °F 29.84 in WSW 4.0 mph 9.0 mph 73% 0.00 in 0 W/m2
18:14 37.5 °F 30.3 °F 29.85 in West 3.0 mph 6.0 mph 75% 0.00 in 0 W/m2
18:50 37.3 °F 30.4 °F 29.86 in West 3.0 mph 3.0 mph 76% 0.00 in 0 W/m2
19:20 36.9 °F 30.7 °F 29.86 in WSW 1.0 mph 1.0 mph 78% 0.00 in 0 W/m2
19:38 36.8 °F 30.9 °F 29.87 in West 2.0 mph 3.0 mph 79% 0.00 in 0 W/m2
19:46 36.8 °F 30.9 °F 29.87 in WNW 2.0 mph 3.0 mph 79% 0.00 in 0 W/m2
19:50 36.6 °F 30.7 °F 29.87 in WSW 2.0 mph 2.0 mph 79% 0.00 in 0 W/m2
19:58 36.5 °F 30.6 °F 29.87 in NW 1.0 mph 2.0 mph 79% 0.00 in 0 W/m2
20:04 36.4 °F 30.8 °F 29.87 in NW 1.0 mph 4.0 mph 80% 0.00 in 0 W/m2
20:06 36.4 °F 30.8 °F 29.87 in NW 1.0 mph 4.0 mph 80% 0.00 in 0 W/m2
20:12 36.4 °F 30.8 °F 29.87 in West 1.0 mph 2.0 mph 80% 0.00 in 0 W/m2
20:18 36.5 °F 30.9 °F 29.87 in WNW 2.0 mph 3.0 mph 80% 0.00 in 0 W/m2
20:24 36.5 °F 30.9 °F 29.87 in West 2.0 mph 4.0 mph 80% 0.00 in 0 W/m2
20:28 36.4 °F 31.1 °F 29.87 in WNW 4.0 mph 5.0 mph 81% 0.00 in 0 W/m2
20:34 36.2 °F 30.9 °F 29.87 in WNW 3.0 mph 4.0 mph 81% 0.00 in 0 W/m2
20:42 35.9 °F 31.2 °F 29.88 in West 2.0 mph 2.0 mph 83% 0.00 in 0 W/m2
20:46 35.7 °F 31.0 °F 29.88 in WNW 2.0 mph 3.0 mph 83% 0.00 in 0 W/m2
20:52 35.5 °F 31.1 °F 29.88 in WNW 1.0 mph 2.0 mph 84% 0.00 in 0 W/m2
20:56 35.3 °F 31.2 °F 29.88 in WSW 1.0 mph 3.0 mph 85% 0.00 in 0 W/m2
21:04 35.2 °F 31.4 °F 29.88 in West 2.0 mph 4.0 mph 86% 0.00 in 0 W/m2
21:10 35.1 °F 31.3 °F 29.88 in WSW 2.0 mph 2.0 mph 86% 0.00 in 0 W/m2
21:14 35.0 °F 31.2 °F 29.88 in WSW 2.0 mph 2.0 mph 86% 0.00 in 0 W/m2
21:22 34.9 °F 31.4 °F 29.88 in West 2.0 mph 2.0 mph 87% 0.00 in 0 W/m2
21:30 34.9 °F 31.4 °F 29.88 in West 2.0 mph 2.0 mph 87% 0.00 in 0 W/m2
21:36 34.8 °F 31.3 °F 29.88 in West 2.0 mph 3.0 mph 87% 0.04 in 0 W/m2
21:38 34.8 °F 31.3 °F 29.88 in West 1.0 mph 3.0 mph 87% 0.04 in 0 W/m2
21:40 34.8 °F 31.3 °F 29.88 in West 1.0 mph 1.0 mph 87% 0.04 in 0 W/m2
21:46 34.8 °F 31.3 °F 29.88 in WSW 1.0 mph 2.0 mph 87% 0.04 in 0 W/m2
21:56 34.8 °F 31.3 °F 29.88 in West 2.0 mph 3.0 mph 87% 0.00 in 0 W/m2
22:08 34.9 °F 31.4 °F 29.88 in West 1.0 mph 4.0 mph 87% 0.00 in 0 W/m2
22:20 35.2 °F 31.4 °F 29.88 in NW 2.0 mph 2.0 mph 86% 0.00 in 0 W/m2
22:24 35.3 °F 31.5 °F 29.88 in WSW 3.0 mph 3.0 mph 86% 0.00 in 0 W/m2
22:26 35.3 °F 31.2 °F 29.88 in WSW 2.0 mph 3.0 mph 85% 0.00 in 0 W/m2
22:32 35.4 °F 31.0 °F 29.88 in WSW 2.0 mph 3.0 mph 84% 0.00 in 0 W/m2
22:34 35.5 °F 31.1 °F 29.88 in West 2.0 mph 5.0 mph 84% 0.00 in 0 W/m2
22:36 35.5 °F 31.1 °F 29.88 in West 3.0 mph 5.0 mph 84% 0.00 in 0 W/m2
22:42 35.6 °F 30.9 °F 29.88 in West 3.0 mph 3.0 mph 83% 0.00 in 0 W/m2
22:44 35.7 °F 31.0 °F 29.88 in WSW 3.0 mph 3.0 mph 83% 0.00 in 0 W/m2
22:52 35.7 °F 30.7 °F 29.88 in West 3.0 mph 3.0 mph 82% 0.00 in 0 W/m2
22:56 35.8 °F 30.5 °F 29.88 in WNW 3.0 mph 4.0 mph 81% 0.00 in 0 W/m2
23:00 35.9 °F 30.3 °F 29.88 in WNW 3.0 mph 4.0 mph 80% 0.00 in 0 W/m2
23:06 36.1 °F 30.2 °F 29.88 in West 4.0 mph 4.0 mph 79% 0.00 in 0 W/m2
23:12 36.0 °F 29.8 °F 29.88 in West 2.0 mph 3.0 mph 78% 0.00 in 0 W/m2
23:14 36.0 °F 29.8 °F 29.88 in West 2.0 mph 4.0 mph 78% 0.00 in 0 W/m2
23:16 35.9 °F 29.7 °F 29.88 in West 2.0 mph 4.0 mph 78% 0.00 in 0 W/m2
23:28 36.1 °F 29.6 °F 29.88 in WSW 4.0 mph 5.0 mph 77% 0.00 in 0 W/m2
23:32 36.1 °F 29.6 °F 29.88 in WNW 4.0 mph 5.0 mph 77% 0.00 in 0 W/m2
23:34 36.1 °F 29.3 °F 29.88 in WNW 4.0 mph 5.0 mph 76% 0.00 in 0 W/m2
23:36 36.1 °F 29.3 °F 29.88 in WSW 4.0 mph 5.0 mph 76% 0.00 in 0 W/m2
23:38 36.1 °F 29.3 °F 29.88 in NW 4.0 mph 5.0 mph 76% 0.00 in 0 W/m2
23:44 36.1 °F 29.3 °F 29.88 in West 4.0 mph 6.0 mph 76% 0.00 in 0 W/m2
23:52 36.0 °F 29.2 °F 29.88 in WSW 3.0 mph 4.0 mph 76% 0.00 in 0 W/m2
23:54 36.0 °F 29.2 °F 29.88 in WSW 3.0 mph 4.0 mph 76% 0.00 in 0 W/m2
Country Meadow, Clay, NY, USA
Compliments of Weather Underground - 2 mb